METAR Data
IDs: Format: Raw Decoded Include TAF

Data at: 1217 UTC 09 Dec 2019

Region: TOP
KATL 091152Z 10006KT 10SM -RA OVC016 09/02 A3010 RMK AO2 RAB24E33B51DZB33E40 PRESRR SLP192 P0000 60000 T00940017 10106 20094 55005

KBOS 091208Z 15005KT 4SM -RA FEW008 BKN014 OVC022 06/03 A3023 RMK AO2 P0000 T00610033

KBWI 091154Z 32003KT 1/2SM R10/P6000FT -DZ FG VV003 07/06 A3010 RMK AO2 DZB47 SLP193 P0000 60005 70005 T00670056 10067 20061 58013

KCLE 091151Z 17010KT 10SM -RA BKN034 BKN049 OVC060 09/04 A2983 RMK AO2 RAB15 SLP103 P0000 60000 T00890044 10106 20089 58026

KCLT 091203Z 05005KT 8SM -RA OVC009 06/00 A3014 RMK AO2 RAB1156 P0000 T00610000 $

KCVG 091152Z 17011KT 6SM -RA BR FEW032 BKN042 OVC055 09/07 A2978 RMK AO2 SLP081 P0006 60018 70018 T00940072 10117 20094 56031

KDCA 091152Z 18005KT 1 1/2SM -DZ BR OVC004 07/07 A3012 RMK AO2 DZE22B32 SLP198 P0000 60001 70001 T00720067 10078 20067 56013

KDEN 091153Z 00000KT 10SM FEW014 FEW090 M04/M07 A2991 RMK AO2 SLP126 T10391067 10044 21044 51021

KDFW 091153Z 21010KT 10SM BKN110 OVC300 18/12 A2973 RMK AO2 SLP060 T01830117 10183 20178 55001

KDTW 091153Z 18009KT 6SM -RA SCT032 BKN060 OVC070 09/05 A2972 RMK AO2 RAB40 SLP067 P0000 60000 T00890050 10094 20083 56032

KEWR 091151Z 02008KT 1 1/2SM RA BR BKN004 OVC009 05/04 A3014 RMK AO2 SFC VIS 1 3/4 SLP206 CIG 003V005 P0010 60021 70021 T00500044 10050 20039 58033

KFLL 091153Z 00000KT 10SM FEW032 FEW042 21/18 A3011 RMK AO2 SLP196 T02110178 10228 20194 53006 $

KIAD 091152Z 13003KT 10SM FEW009 BKN075 OVC160 03/01 A3009 RMK AO2 SLP191 T00280011 10061 20022 58020

KIAH 091153Z 17003KT 7SM BKN008 BKN020 OVC037 21/19 A2986 RMK AO2 SLP111 T02060189 10206 20189 55001

KJFK 091151Z 08005KT 1/2SM R04R/P6000FT -RA BR SCT003 OVC007 07/07 A3016 RMK AO2 SFC VIS 3 SLP211 P0009 60023 70023 T00670067 10067 20056 58033 $

KLAS 091156Z 23004KT 10SM FEW100 09/04 A2999 RMK AO2 SLP149 T00940044 10128 20094 50002

KLAX 091153Z 00000KT 10SM FEW014 FEW120 12/10 A3002 RMK AO2 SLP164 70005 T01170100 10156 20117 58002

KLGA 091208Z 05008KT 1SM R04/P6000FT -RA BR BKN003 OVC005 06/04 A3014 RMK AO2 SFC VIS 2 P0004 T00610044

KMCO 091153Z 00000KT 10SM R35L/2600VP6000FT BCFG FEW250 14/13 A3014 RMK AO2 SLP203 T01440133 10172 20139 53006

KMDW 091153Z 23008KT 3SM -RA BR BKN007 OVC012 08/08 A2957 RMK AO2 SLP015 P0000 60001 70001 T00830078 10089 20083 56025

KMEM 091154Z 20015G21KT 10SM OVC017 16/12 A2979 RMK AO2 PK WND 21029/1105 SLP087 T01560122 10161 20128 55012 $

KMIA 091153Z 03003KT 10SM SCT026 SCT250 19/16 A3012 RMK AO2 SLP198 T01940161 10228 20183 53005

KMSP 091214Z 33011KT 2SM -SN BR OVC005 00/M01 A2958 RMK AO2 P0002 T00001011

KORD 091207Z 22008KT 3SM -DZ BR OVC007 08/07 A2955 RMK AO2 DZB1158 P0000 T00780067

KPDX 091153Z 10004KT 10SM FEW003 SCT006 OVC011 08/06 A3022 RMK AO2 SLP234 T00780061 10094 20078 55005

KPHL 091154Z 01006KT 4SM -RA BR BKN003 BKN013 OVC028 06/04 A3009 RMK AO2 SLP190 CIG 002V004 P0006 60025 70026 T00560044 10056 20050 58038

KPHX 091151Z 00000KT 6SM BR BKN080 BKN095 14/12 A2989 RMK AO2 SLP112 70001 T01390122 10150 20133 58010

KPIT 091151Z 16005KT 7SM -RA BKN030 BKN050 OVC060 07/06 A2991 RMK AO2 SLP140 P0002 60004 70004 T00720056 10094 20067 58018

KSAN 091151Z 00000KT 10SM BKN023 BKN055 14/13 A3004 RMK AO2 RAB00E17 SLP171 VCSH P0002 60002 70006 T01440128 10167 20144 55002

KSEA 091159Z 04004KT 2SM BR OVC002 07/06 A3024 RMK AO2 T00720056 $

KSFO 091156Z 00000KT 1/4SM R28R/P6000FT FG OVC002 11/10 A3013 RMK AO2 SLP201 70002 T01110100 10128 20094 53002

KSLC 091154Z 02004KT 10SM FEW041 BKN055 OVC075 02/01 A3005 RMK AO2 SLP177 60000 70025 T00220011 10044 20022 53008 $

KSTL 091151Z COR 19009KT 8SM -RA FEW016 OVC024 10/08 A2961 RMK AO2 RAB09 SLP029 P0000 60000 70002 T01000078 10100 20100 56020 $

KTPA 091153Z 13005KT 10SM FEW320 19/16 A3012 RMK AO2 SLP198 T01890156 10200 20183 53003